Shearwater, Canada
Current Conditions -  °F | °C
As of 6:00 AM on Thursday 18 Dec 2014 (Local Time) from CYHZ Reporting Station
Drizzle Drizzle  
Wind Chill: 35°   Ceiling: 200
Heat Index: 43°   Visibility: 1.2mi
Dew Point: 41°   Wind: 15mph
Humidity: 93%   Direction: 170°S
Pressure: 29.38"   Gusts: 24mph
Location:  44.63°N, 63.52°W
Report Text: CYHZ 181000Z 17013G21KT 1 1/4SM -DZ BR OVC002 06/05 A2938 RMK SF8 SLP952
Loading
Personal Weather Stations






























Interactive Weather Map New forecast layout! Learn more

10-Day Weather Forecast

Advertisements
Track Severe Weather on mobile